sensor_id;sensor_type;location;lat;lon;timestamp;temperature;humidity
23618;DHT22;18207;32.078;34.818;2022-10-16T00:00:03;29.60;41.70
23618;DHT22;18207;32.078;34.818;2022-10-16T00:02:34;29.60;41.70
23618;DHT22;18207;32.078;34.818;2022-10-16T00:05:05;29.60;41.70
23618;DHT22;18207;32.078;34.818;2022-10-16T00:07:36;29.60;41.70
23618;DHT22;18207;32.078;34.818;2022-10-16T00:10:07;29.60;41.70
23618;DHT22;18207;32.078;34.818;2022-10-16T00:12:40;29.60;41.70
23618;DHT22;18207;32.078;34.818;2022-10-16T00:15:10;29.60;41.60
23618;DHT22;18207;32.078;34.818;2022-10-16T00:17:41;29.50;41.50
23618;DHT22;18207;32.078;34.818;2022-10-16T00:20:11;29.50;41.50
23618;DHT22;18207;32.078;34.818;2022-10-16T00:22:41;29.50;41.50
23618;DHT22;18207;32.078;34.818;2022-10-16T00:25:11;29.50;41.60
23618;DHT22;18207;32.078;34.818;2022-10-16T00:27:44;29.40;41.50
23618;DHT22;18207;32.078;34.818;2022-10-16T00:30:14;29.40;41.60
23618;DHT22;18207;32.078;34.818;2022-10-16T00:32:45;29.40;41.70
23618;DHT22;18207;32.078;34.818;2022-10-16T00:35:16;29.40;41.70
23618;DHT22;18207;32.078;34.818;2022-10-16T00:37:46;29.40;41.70
23618;DHT22;18207;32.078;34.818;2022-10-16T00:40:17;29.30;41.60
23618;DHT22;18207;32.078;34.818;2022-10-16T00:42:50;29.30;41.70
23618;DHT22;18207;32.078;34.818;2022-10-16T00:45:20;29.30;41.70
23618;DHT22;18207;32.078;34.818;2022-10-16T00:47:53;29.30;41.80
23618;DHT22;18207;32.078;34.818;2022-10-16T00:50:29;29.30;41.80
23618;DHT22;18207;32.078;34.818;2022-10-16T00:53:02;29.30;41.90
23618;DHT22;18207;32.078;34.818;2022-10-16T00:55:33;29.30;41.90
23618;DHT22;18207;32.078;34.818;2022-10-16T00:58:10;29.30;41.90
23618;DHT22;18207;32.078;34.818;2022-10-16T01:00:40;29.30;41.90
23618;DHT22;18207;32.078;34.818;2022-10-16T01:03:24;29.30;41.90
23618;DHT22;18207;32.078;34.818;2022-10-16T01:06:07;29.30;41.90
23618;DHT22;18207;32.078;34.818;2022-10-16T01:11:54;29.30;41.80
23618;DHT22;18207;32.078;34.818;2022-10-16T01:14:40;29.30;41.80
23618;DHT22;18207;32.078;34.818;2022-10-16T01:17:18;29.30;41.70
23618;DHT22;18207;32.078;34.818;2022-10-16T01:20:03;29.30;41.70
23618;DHT22;18207;32.078;34.818;2022-10-16T01:22:48;29.30;41.60
23618;DHT22;18207;32.078;34.818;2022-10-16T01:25:36;29.20;41.60
23618;DHT22;18207;32.078;34.818;2022-10-16T01:28:36;29.20;41.60
23618;DHT22;18207;32.078;34.818;2022-10-16T01:31:11;29.20;41.70
23618;DHT22;18207;32.078;34.818;2022-10-16T01:33:49;29.20;41.70
23618;DHT22;18207;32.078;34.818;2022-10-16T01:36:28;29.20;41.70
23618;DHT22;18207;32.078;34.818;2022-10-16T01:39:08;29.20;41.80
23618;DHT22;18207;32.078;34.818;2022-10-16T01:41:44;29.10;41.70
23618;DHT22;18207;32.078;34.818;2022-10-16T01:44:22;29.20;41.80
23618;DHT22;18207;32.078;34.818;2022-10-16T01:46:59;29.20;41.80
23618;DHT22;18207;32.078;34.818;2022-10-16T01:49:33;29.20;41.80
23618;DHT22;18207;32.078;34.818;2022-10-16T01:52:10;29.20;41.80
23618;DHT22;18207;32.078;34.818;2022-10-16T01:54:47;29.20;41.80
23618;DHT22;18207;32.078;34.818;2022-10-16T01:57:24;29.20;41.70
23618;DHT22;18207;32.078;34.818;2022-10-16T02:00:04;29.20;41.70
23618;DHT22;18207;32.078;34.818;2022-10-16T02:02:40;29.20;41.70
23618;DHT22;18207;32.078;34.818;2022-10-16T02:05:17;29.20;41.70
23618;DHT22;18207;32.078;34.818;2022-10-16T02:07:52;29.20;41.70
23618;DHT22;18207;32.078;34.818;2022-10-16T02:10:25;29.20;41.70
23618;DHT22;18207;32.078;34.818;2022-10-16T02:13:02;29.30;41.70
23618;DHT22;18207;32.078;34.818;2022-10-16T02:15:37;29.20;41.60
23618;DHT22;18207;32.078;34.818;2022-10-16T02:18:09;29.30;41.70
23618;DHT22;18207;32.078;34.818;2022-10-16T02:20:44;29.30;41.60
23618;DHT22;18207;32.078;34.818;2022-10-16T02:23:27;29.30;41.60
23618;DHT22;18207;32.078;34.818;2022-10-16T02:26:06;29.30;41.60
23618;DHT22;18207;32.078;34.818;2022-10-16T02:28:44;29.30;41.60
23618;DHT22;18207;32.078;34.818;2022-10-16T02:31:24;29.30;41.50
23618;DHT22;18207;32.078;34.818;2022-10-16T02:33:59;29.20;41.50
23618;DHT22;18207;32.078;34.818;2022-10-16T02:36:33;29.20;41.50
23618;DHT22;18207;32.078;34.818;2022-10-16T02:39:06;29.20;41.50
23618;DHT22;18207;32.078;34.818;2022-10-16T02:41:38;29.20;41.50
23618;DHT22;18207;32.078;34.818;2022-10-16T02:44:08;29.20;41.50
23618;DHT22;18207;32.078;34.818;2022-10-16T02:46:40;29.20;41.50
23618;DHT22;18207;32.078;34.818;2022-10-16T02:49:11;29.20;41.50
23618;DHT22;18207;32.078;34.818;2022-10-16T02:51:41;29.20;41.50
23618;DHT22;18207;32.078;34.818;2022-10-16T02:54:12;29.20;41.50
23618;DHT22;18207;32.078;34.818;2022-10-16T02:56:43;29.20;41.50
23618;DHT22;18207;32.078;34.818;2022-10-16T02:59:13;29.20;41.60
23618;DHT22;18207;32.078;34.818;2022-10-16T03:01:45;29.20;41.60
23618;DHT22;18207;32.078;34.818;2022-10-16T03:04:16;29.20;41.60
23618;DHT22;18207;32.078;34.818;2022-10-16T03:06:47;29.20;41.60
23618;DHT22;18207;32.078;34.818;2022-10-16T03:09:17;29.10;41.40
23618;DHT22;18207;32.078;34.818;2022-10-16T03:11:48;29.10;41.40
23618;DHT22;18207;32.078;34.818;2022-10-16T03:14:19;29.10;41.40
23618;DHT22;18207;32.078;34.818;2022-10-16T03:16:52;29.10;41.40
23618;DHT22;18207;32.078;34.818;2022-10-16T03:19:23;29.00;41.30
23618;DHT22;18207;32.078;34.818;2022-10-16T03:21:53;29.00;41.40
23618;DHT22;18207;32.078;34.818;2022-10-16T03:24:23;29.00;41.40
23618;DHT22;18207;32.078;34.818;2022-10-16T03:26:53;29.00;41.50
23618;DHT22;18207;32.078;34.818;2022-10-16T03:29:24;29.00;41.50
23618;DHT22;18207;32.078;34.818;2022-10-16T03:32:13;28.90;41.50
23618;DHT22;18207;32.078;34.818;2022-10-16T03:34:43;28.90;41.50
23618;DHT22;18207;32.078;34.818;2022-10-16T03:37:14;28.90;41.50
23618;DHT22;18207;32.078;34.818;2022-10-16T03:39:44;28.90;41.50
23618;DHT22;18207;32.078;34.818;2022-10-16T03:42:14;28.90;41.60
23618;DHT22;18207;32.078;34.818;2022-10-16T03:44:45;28.90;41.60
23618;DHT22;18207;32.078;34.818;2022-10-16T03:47:17;28.80;41.50
23618;DHT22;18207;32.078;34.818;2022-10-16T03:49:49;28.80;41.60
23618;DHT22;18207;32.078;34.818;2022-10-16T03:52:20;28.80;41.60
23618;DHT22;18207;32.078;34.818;2022-10-16T03:54:50;28.90;41.70
23618;DHT22;18207;32.078;34.818;2022-10-16T03:57:21;28.80;41.60
23618;DHT22;18207;32.078;34.818;2022-10-16T03:59:51;28.80;41.60
23618;DHT22;18207;32.078;34.818;2022-10-16T04:02:23;28.80;41.70
23618;DHT22;18207;32.078;34.818;2022-10-16T04:04:53;28.90;41.70
23618;DHT22;18207;32.078;34.818;2022-10-16T04:07:23;28.90;41.70
23618;DHT22;18207;32.078;34.818;2022-10-16T04:09:55;28.90;41.70
23618;DHT22;18207;32.078;34.818;2022-10-16T04:12:26;28.90;41.70
23618;DHT22;18207;32.078;34.818;2022-10-16T04:14:57;28.90;41.70
23618;DHT22;18207;32.078;34.818;2022-10-16T04:17:29;28.90;41.60
23618;DHT22;18207;32.078;34.818;2022-10-16T04:20:00;28.90;41.60
23618;DHT22;18207;32.078;34.818;2022-10-16T04:22:31;28.90;41.50
23618;DHT22;18207;32.078;34.818;2022-10-16T04:25:01;28.90;41.60
23618;DHT22;18207;32.078;34.818;2022-10-16T04:27:32;28.90;41.60
23618;DHT22;18207;32.078;34.818;2022-10-16T04:30:02;28.90;41.60
23618;DHT22;18207;32.078;34.818;2022-10-16T04:32:35;29.00;41.80
23618;DHT22;18207;32.078;34.818;2022-10-16T04:35:07;29.00;41.80
23618;DHT22;18207;32.078;34.818;2022-10-16T04:37:38;29.10;41.90
23618;DHT22;18207;32.078;34.818;2022-10-16T04:40:08;29.20;41.90
23618;DHT22;18207;32.078;34.818;2022-10-16T04:42:38;29.20;41.90
23618;DHT22;18207;32.078;34.818;2022-10-16T04:45:09;29.40;42.00
23618;DHT22;18207;32.078;34.818;2022-10-16T04:47:45;29.50;42.00
23618;DHT22;18207;32.078;34.818;2022-10-16T04:50:15;29.60;41.90
23618;DHT22;18207;32.078;34.818;2022-10-16T04:52:45;29.70;41.90
23618;DHT22;18207;32.078;34.818;2022-10-16T04:55:15;29.80;41.90
23618;DHT22;18207;32.078;34.818;2022-10-16T04:57:46;29.90;41.80
23618;DHT22;18207;32.078;34.818;2022-10-16T05:00:19;30.10;41.80
23618;DHT22;18207;32.078;34.818;2022-10-16T05:02:53;30.20;41.40
23618;DHT22;18207;32.078;34.818;2022-10-16T05:05:24;30.30;41.40
23618;DHT22;18207;32.078;34.818;2022-10-16T05:07:55;30.40;41.40
23618;DHT22;18207;32.078;34.818;2022-10-16T05:10:25;30.50;41.50
23618;DHT22;18207;32.078;34.818;2022-10-16T05:12:55;30.60;41.50
23618;DHT22;18207;32.078;34.818;2022-10-16T05:15:25;30.80;41.50
23618;DHT22;18207;32.078;34.818;2022-10-16T05:17:59;30.90;41.30
23618;DHT22;18207;32.078;34.818;2022-10-16T05:20:29;31.00;41.20
23618;DHT22;18207;32.078;34.818;2022-10-16T05:22:59;31.20;41.20
23618;DHT22;18207;32.078;34.818;2022-10-16T05:25:30;31.30;41.10
23618;DHT22;18207;32.078;34.818;2022-10-16T05:28:00;31.40;41.00
23618;DHT22;18207;32.078;34.818;2022-10-16T05:30:31;31.60;41.00
23618;DHT22;18207;32.078;34.818;2022-10-16T05:33:03;31.70;40.90
23618;DHT22;18207;32.078;34.818;2022-10-16T05:35:34;31.90;40.80
23618;DHT22;18207;32.078;34.818;2022-10-16T05:38:04;32.10;40.70
23618;DHT22;18207;32.078;34.818;2022-10-16T05:40:35;32.20;40.60
23618;DHT22;18207;32.078;34.818;2022-10-16T05:43:05;32.40;40.50
23618;DHT22;18207;32.078;34.818;2022-10-16T05:45:35;32.50;40.30
23618;DHT22;18207;32.078;34.818;2022-10-16T05:48:07;32.70;40.20
23618;DHT22;18207;32.078;34.818;2022-10-16T05:50:38;32.90;40.60
23618;DHT22;18207;32.078;34.818;2022-10-16T05:53:08;33.00;39.90
23618;DHT22;18207;32.078;34.818;2022-10-16T05:55:38;33.10;39.60
23618;DHT22;18207;32.078;34.818;2022-10-16T05:58:07;33.20;39.30
23618;DHT22;18207;32.078;34.818;2022-10-16T06:00:38;33.30;39.00
23618;DHT22;18207;32.078;34.818;2022-10-16T06:03:11;33.40;38.80
23618;DHT22;18207;32.078;34.818;2022-10-16T06:05:41;33.40;38.70
23618;DHT22;18207;32.078;34.818;2022-10-16T06:08:12;33.50;38.60
23618;DHT22;18207;32.078;34.818;2022-10-16T06:10:42;33.60;38.40
23618;DHT22;18207;32.078;34.818;2022-10-16T06:13:13;33.70;38.20
23618;DHT22;18207;32.078;34.818;2022-10-16T06:15:45;33.80;38.00
23618;DHT22;18207;32.078;34.818;2022-10-16T06:18:18;33.80;37.80
23618;DHT22;18207;32.078;34.818;2022-10-16T06:20:48;33.90;37.70
23618;DHT22;18207;32.078;34.818;2022-10-16T06:23:20;34.00;37.50
23618;DHT22;18207;32.078;34.818;2022-10-16T06:25:52;34.10;37.50
23618;DHT22;18207;32.078;34.818;2022-10-16T06:28:22;34.10;37.40
23618;DHT22;18207;32.078;34.818;2022-10-16T06:30:59;34.20;37.30
23618;DHT22;18207;32.078;34.818;2022-10-16T06:33:37;34.30;37.10
23618;DHT22;18207;32.078;34.818;2022-10-16T06:36:09;34.40;37.10
23618;DHT22;18207;32.078;34.818;2022-10-16T06:38:42;34.50;37.00
23618;DHT22;18207;32.078;34.818;2022-10-16T06:41:14;34.60;37.00
23618;DHT22;18207;32.078;34.818;2022-10-16T06:43:45;34.70;36.90
23618;DHT22;18207;32.078;34.818;2022-10-16T06:46:18;34.80;36.80
23618;DHT22;18207;32.078;34.818;2022-10-16T06:48:52;34.90;36.50
23618;DHT22;18207;32.078;34.818;2022-10-16T06:51:25;35.00;36.40
23618;DHT22;18207;32.078;34.818;2022-10-16T06:53:56;35.10;36.10
23618;DHT22;18207;32.078;34.818;2022-10-16T06:56:31;35.20;35.90
23618;DHT22;18207;32.078;34.818;2022-10-16T06:59:02;35.30;35.90
23618;DHT22;18207;32.078;34.818;2022-10-16T07:01:32;35.40;35.60
23618;DHT22;18207;32.078;34.818;2022-10-16T07:04:04;35.40;35.40
23618;DHT22;18207;32.078;34.818;2022-10-16T07:06:35;35.50;35.30
23618;DHT22;18207;32.078;34.818;2022-10-16T07:09:07;35.60;35.20
23618;DHT22;18207;32.078;34.818;2022-10-16T07:11:40;35.70;35.00
23618;DHT22;18207;32.078;34.818;2022-10-16T07:14:15;35.70;34.80
23618;DHT22;18207;32.078;34.818;2022-10-16T07:16:47;35.80;34.60
23618;DHT22;18207;32.078;34.818;2022-10-16T07:19:20;35.90;34.60
23618;DHT22;18207;32.078;34.818;2022-10-16T07:21:50;36.00;34.30
23618;DHT22;18207;32.078;34.818;2022-10-16T07:24:21;36.00;34.20
23618;DHT22;18207;32.078;34.818;2022-10-16T07:26:51;36.10;34.10
23618;DHT22;18207;32.078;34.818;2022-10-16T07:29:22;36.20;33.90
23618;DHT22;18207;32.078;34.818;2022-10-16T07:31:52;36.20;33.90
23618;DHT22;18207;32.078;34.818;2022-10-16T07:34:24;36.30;33.80
23618;DHT22;18207;32.078;34.818;2022-10-16T07:36:55;36.30;33.60
23618;DHT22;18207;32.078;34.818;2022-10-16T07:39:26;36.40;34.10
23618;DHT22;18207;32.078;34.818;2022-10-16T07:41:56;36.50;33.20
23618;DHT22;18207;32.078;34.818;2022-10-16T07:44:27;36.50;33.10
23618;DHT22;18207;32.078;34.818;2022-10-16T07:46:57;36.60;33.00
23618;DHT22;18207;32.078;34.818;2022-10-16T07:49:29;36.60;33.50
23618;DHT22;18207;32.078;34.818;2022-10-16T07:51:59;36.60;32.80
23618;DHT22;18207;32.078;34.818;2022-10-16T07:54:30;36.70;32.90
23618;DHT22;18207;32.078;34.818;2022-10-16T07:57:09;36.70;32.80
23618;DHT22;18207;32.078;34.818;2022-10-16T07:59:46;36.70;32.60
23618;DHT22;18207;32.078;34.818;2022-10-16T08:02:17;36.80;32.50
23618;DHT22;18207;32.078;34.818;2022-10-16T08:04:50;36.90;32.30
23618;DHT22;18207;32.078;34.818;2022-10-16T08:07:20;36.90;32.10
23618;DHT22;18207;32.078;34.818;2022-10-16T08:09:51;37.00;32.20
23618;DHT22;18207;32.078;34.818;2022-10-16T08:12:24;37.00;32.20
23618;DHT22;18207;32.078;34.818;2022-10-16T08:14:55;37.10;32.20
23618;DHT22;18207;32.078;34.818;2022-10-16T08:17:25;37.10;32.20
23618;DHT22;18207;32.078;34.818;2022-10-16T08:19:57;37.20;32.20
23618;DHT22;18207;32.078;34.818;2022-10-16T08:22:27;37.20;32.10
23618;DHT22;18207;32.078;34.818;2022-10-16T08:24:59;37.20;32.20
23618;DHT22;18207;32.078;34.818;2022-10-16T08:27:31;37.20;32.20
23618;DHT22;18207;32.078;34.818;2022-10-16T08:30:08;37.30;32.20
23618;DHT22;18207;32.078;34.818;2022-10-16T08:32:39;37.30;32.20
23618;DHT22;18207;32.078;34.818;2022-10-16T08:35:12;37.20;32.20
23618;DHT22;18207;32.078;34.818;2022-10-16T08:37:43;37.20;32.20
23618;DHT22;18207;32.078;34.818;2022-10-16T08:40:18;37.20;32.20
23618;DHT22;18207;32.078;34.818;2022-10-16T08:43:19;37.20;32.20
23618;DHT22;18207;32.078;34.818;2022-10-16T08:46:21;37.10;32.10
23618;DHT22;18207;32.078;34.818;2022-10-16T08:49:05;37.10;32.10
23618;DHT22;18207;32.078;34.818;2022-10-16T08:51:44;37.00;32.10
23618;DHT22;18207;32.078;34.818;2022-10-16T08:54:26;37.00;32.10
23618;DHT22;18207;32.078;34.818;2022-10-16T08:57:09;36.90;32.20
23618;DHT22;18207;32.078;34.818;2022-10-16T08:59:50;36.90;32.20
23618;DHT22;18207;32.078;34.818;2022-10-16T09:02:30;36.90;32.40
23618;DHT22;18207;32.078;34.818;2022-10-16T09:05:41;36.80;32.40
23618;DHT22;18207;32.078;34.818;2022-10-16T09:08:45;36.80;32.30
23618;DHT22;18207;32.078;34.818;2022-10-16T09:11:41;36.70;32.30
23618;DHT22;18207;32.078;34.818;2022-10-16T09:14:40;36.70;32.40
23618;DHT22;18207;32.078;34.818;2022-10-16T09:17:38;36.60;32.40
23618;DHT22;18207;32.078;34.818;2022-10-16T09:20:30;36.60;32.50
23618;DHT22;18207;32.078;34.818;2022-10-16T09:23:14;36.60;32.50
23618;DHT22;18207;32.078;34.818;2022-10-16T09:25:49;36.50;32.40
23618;DHT22;18207;32.078;34.818;2022-10-16T09:28:22;36.50;32.40
23618;DHT22;18207;32.078;34.818;2022-10-16T09:30:52;36.50;32.40
23618;DHT22;18207;32.078;34.818;2022-10-16T09:33:25;36.40;32.40
23618;DHT22;18207;32.078;34.818;2022-10-16T09:35:59;36.30;32.40
23618;DHT22;18207;32.078;34.818;2022-10-16T09:38:34;36.30;32.40
23618;DHT22;18207;32.078;34.818;2022-10-16T09:41:15;36.20;32.40
23618;DHT22;18207;32.078;34.818;2022-10-16T09:43:52;36.20;32.50
23618;DHT22;18207;32.078;34.818;2022-10-16T09:46:28;36.10;32.60
23618;DHT22;18207;32.078;34.818;2022-10-16T09:49:02;36.10;32.80
23618;DHT22;18207;32.078;34.818;2022-10-16T09:51:37;36.00;33.00
23618;DHT22;18207;32.078;34.818;2022-10-16T09:54:15;35.90;33.20
23618;DHT22;18207;32.078;34.818;2022-10-16T09:56:48;35.80;33.40
23618;DHT22;18207;32.078;34.818;2022-10-16T09:59:21;35.70;33.40
23618;DHT22;18207;32.078;34.818;2022-10-16T10:01:56;35.70;33.50
23618;DHT22;18207;32.078;34.818;2022-10-16T10:04:40;35.60;33.60
23618;DHT22;18207;32.078;34.818;2022-10-16T10:07:24;35.60;33.80
23618;DHT22;18207;32.078;34.818;2022-10-16T10:09:57;35.40;33.80
23618;DHT22;18207;32.078;34.818;2022-10-16T10:12:31;35.40;33.80
23618;DHT22;18207;32.078;34.818;2022-10-16T10:15:06;35.30;33.90
23618;DHT22;18207;32.078;34.818;2022-10-16T10:17:46;35.20;33.80
23618;DHT22;18207;32.078;34.818;2022-10-16T10:20:25;35.20;34.00
23618;DHT22;18207;32.078;34.818;2022-10-16T10:22:58;35.10;33.90
23618;DHT22;18207;32.078;34.818;2022-10-16T10:25:44;35.00;33.90
23618;DHT22;18207;32.078;34.818;2022-10-16T10:28:57;35.00;34.00
23618;DHT22;18207;32.078;34.818;2022-10-16T10:31:39;34.90;34.10
23618;DHT22;18207;32.078;34.818;2022-10-16T10:34:34;34.90;34.20
23618;DHT22;18207;32.078;34.818;2022-10-16T10:37:26;34.90;34.30
23618;DHT22;18207;32.078;34.818;2022-10-16T10:40:28;34.80;34.40
23618;DHT22;18207;32.078;34.818;2022-10-16T10:43:32;34.70;34.40
23618;DHT22;18207;32.078;34.818;2022-10-16T10:46:22;34.70;34.50
23618;DHT22;18207;32.078;34.818;2022-10-16T10:49:12;34.60;34.50
23618;DHT22;18207;32.078;34.818;2022-10-16T10:52:01;34.50;34.50
23618;DHT22;18207;32.078;34.818;2022-10-16T10:54:49;34.50;34.70
23618;DHT22;18207;32.078;34.818;2022-10-16T10:57:29;34.40;34.60
23618;DHT22;18207;32.078;34.818;2022-10-16T11:00:20;34.40;34.60
23618;DHT22;18207;32.078;34.818;2022-10-16T11:03:10;34.40;34.70
23618;DHT22;18207;32.078;34.818;2022-10-16T11:05:57;34.40;34.90
23618;DHT22;18207;32.078;34.818;2022-10-16T11:08:37;34.30;34.90
23618;DHT22;18207;32.078;34.818;2022-10-16T11:11:17;34.30;35.00
23618;DHT22;18207;32.078;34.818;2022-10-16T11:13:57;34.30;35.00
23618;DHT22;18207;32.078;34.818;2022-10-16T11:16:35;34.20;35.00
23618;DHT22;18207;32.078;34.818;2022-10-16T11:19:18;34.20;35.10
23618;DHT22;18207;32.078;34.818;2022-10-16T11:24:44;34.10;35.10
23618;DHT22;18207;32.078;34.818;2022-10-16T11:27:21;34.10;35.10
23618;DHT22;18207;32.078;34.818;2022-10-16T11:30:04;34.10;35.20
23618;DHT22;18207;32.078;34.818;2022-10-16T11:33:02;34.00;35.10
23618;DHT22;18207;32.078;34.818;2022-10-16T11:36:00;34.00;35.10
23618;DHT22;18207;32.078;34.818;2022-10-16T11:38:44;34.00;35.00
23618;DHT22;18207;32.078;34.818;2022-10-16T11:41:26;34.00;35.10
23618;DHT22;18207;32.078;34.818;2022-10-16T11:44:27;34.00;35.10
23618;DHT22;18207;32.078;34.818;2022-10-16T11:47:22;33.90;35.00
23618;DHT22;18207;32.078;34.818;2022-10-16T11:50:23;33.90;35.00
23618;DHT22;18207;32.078;34.818;2022-10-16T11:53:16;33.90;35.00
23618;DHT22;18207;32.078;34.818;2022-10-16T11:55:56;33.90;35.00
23618;DHT22;18207;32.078;34.818;2022-10-16T11:58:30;33.80;34.90
23618;DHT22;18207;32.078;34.818;2022-10-16T12:01:18;33.80;34.90
23618;DHT22;18207;32.078;34.818;2022-10-16T12:04:05;33.80;35.00
23618;DHT22;18207;32.078;34.818;2022-10-16T12:06:48;33.70;35.00
23618;DHT22;18207;32.078;34.818;2022-10-16T12:09:30;33.70;35.40
23618;DHT22;18207;32.078;34.818;2022-10-16T12:12:04;33.70;35.80
23618;DHT22;18207;32.078;34.818;2022-10-16T12:15:17;33.60;35.90
23618;DHT22;18207;32.078;34.818;2022-10-16T12:18:21;33.60;36.30
23618;DHT22;18207;32.078;34.818;2022-10-16T12:20:56;33.60;36.60
23618;DHT22;18207;32.078;34.818;2022-10-16T12:23:33;33.60;36.70
23618;DHT22;18207;32.078;34.818;2022-10-16T12:26:11;33.50;36.70
23618;DHT22;18207;32.078;34.818;2022-10-16T12:28:42;33.50;36.90
23618;DHT22;18207;32.078;34.818;2022-10-16T12:31:16;33.50;37.00
23618;DHT22;18207;32.078;34.818;2022-10-16T12:33:58;33.40;37.10
23618;DHT22;18207;32.078;34.818;2022-10-16T12:36:34;33.40;37.40
23618;DHT22;18207;32.078;34.818;2022-10-16T12:39:23;33.40;37.30
23618;DHT22;18207;32.078;34.818;2022-10-16T12:42:17;33.40;37.60
23618;DHT22;18207;32.078;34.818;2022-10-16T12:44:51;33.30;37.60
23618;DHT22;18207;32.078;34.818;2022-10-16T12:47:24;33.30;37.50
23618;DHT22;18207;32.078;34.818;2022-10-16T12:50:25;33.30;37.60
23618;DHT22;18207;32.078;34.818;2022-10-16T12:53:02;33.30;37.80
23618;DHT22;18207;32.078;34.818;2022-10-16T12:55:55;33.30;37.70
23618;DHT22;18207;32.078;34.818;2022-10-16T12:58:54;33.30;37.80
23618;DHT22;18207;32.078;34.818;2022-10-16T13:01:41;33.20;37.90
23618;DHT22;18207;32.078;34.818;2022-10-16T13:04:49;33.20;37.90
23618;DHT22;18207;32.078;34.818;2022-10-16T13:07:52;33.20;38.10
23618;DHT22;18207;32.078;34.818;2022-10-16T13:10:35;33.10;37.90
23618;DHT22;18207;32.078;34.818;2022-10-16T13:16:22;33.10;38.00
23618;DHT22;18207;32.078;34.818;2022-10-16T13:19:08;33.10;38.10
23618;DHT22;18207;32.078;34.818;2022-10-16T13:21:51;33.00;38.00
23618;DHT22;18207;32.078;34.818;2022-10-16T13:24:51;33.10;38.10
23618;DHT22;18207;32.078;34.818;2022-10-16T13:27:43;33.00;38.20
23618;DHT22;18207;32.078;34.818;2022-10-16T13:30:23;33.00;38.10
23618;DHT22;18207;32.078;34.818;2022-10-16T13:33:02;33.00;38.10
23618;DHT22;18207;32.078;34.818;2022-10-16T13:35:45;33.00;38.20
23618;DHT22;18207;32.078;34.818;2022-10-16T13:38:20;33.00;38.20
23618;DHT22;18207;32.078;34.818;2022-10-16T13:40:55;32.90;38.10
23618;DHT22;18207;32.078;34.818;2022-10-16T13:43:31;33.00;38.30
23618;DHT22;18207;32.078;34.818;2022-10-16T13:46:06;32.90;38.20
23618;DHT22;18207;32.078;34.818;2022-10-16T13:48:43;32.90;38.20
23618;DHT22;18207;32.078;34.818;2022-10-16T13:51:15;32.80;38.20
23618;DHT22;18207;32.078;34.818;2022-10-16T13:53:47;32.80;38.20
23618;DHT22;18207;32.078;34.818;2022-10-16T13:56:19;32.80;38.20
23618;DHT22;18207;32.078;34.818;2022-10-16T13:58:59;32.80;38.30
23618;DHT22;18207;32.078;34.818;2022-10-16T14:01:32;32.80;38.30
23618;DHT22;18207;32.078;34.818;2022-10-16T14:04:09;32.80;38.30
23618;DHT22;18207;32.078;34.818;2022-10-16T14:06:51;32.80;38.30
23618;DHT22;18207;32.078;34.818;2022-10-16T14:09:30;32.70;38.20
23618;DHT22;18207;32.078;34.818;2022-10-16T14:12:09;32.70;38.20
23618;DHT22;18207;32.078;34.818;2022-10-16T14:14:44;32.70;38.20
23618;DHT22;18207;32.078;34.818;2022-10-16T14:17:21;32.70;38.20
23618;DHT22;18207;32.078;34.818;2022-10-16T14:20:15;32.70;38.20
23618;DHT22;18207;32.078;34.818;2022-10-16T14:22:46;32.70;38.30
23618;DHT22;18207;32.078;34.818;2022-10-16T14:25:30;32.70;38.30
23618;DHT22;18207;32.078;34.818;2022-10-16T14:28:04;32.60;38.20
23618;DHT22;18207;32.078;34.818;2022-10-16T14:30:52;32.70;38.30
23618;DHT22;18207;32.078;34.818;2022-10-16T14:33:32;32.60;38.30
23618;DHT22;18207;32.078;34.818;2022-10-16T14:36:12;32.60;38.40
23618;DHT22;18207;32.078;34.818;2022-10-16T14:39:00;32.60;38.40
23618;DHT22;18207;32.078;34.818;2022-10-16T14:41:40;32.50;38.40
23618;DHT22;18207;32.078;34.818;2022-10-16T14:44:14;32.50;38.40
23618;DHT22;18207;32.078;34.818;2022-10-16T14:46:47;32.50;38.50
23618;DHT22;18207;32.078;34.818;2022-10-16T14:49:18;32.50;38.50
23618;DHT22;18207;32.078;34.818;2022-10-16T14:51:52;32.50;38.60
23618;DHT22;18207;32.078;34.818;2022-10-16T14:54:22;32.50;38.70
23618;DHT22;18207;32.078;34.818;2022-10-16T14:56:55;32.50;38.70
23618;DHT22;18207;32.078;34.818;2022-10-16T14:59:30;32.40;38.70
23618;DHT22;18207;32.078;34.818;2022-10-16T15:02:14;32.40;38.80
23618;DHT22;18207;32.078;34.818;2022-10-16T15:04:51;32.40;39.00
23618;DHT22;18207;32.078;34.818;2022-10-16T15:07:24;32.40;38.90
23618;DHT22;18207;32.078;34.818;2022-10-16T15:09:55;32.40;39.00
23618;DHT22;18207;32.078;34.818;2022-10-16T15:12:27;32.40;39.00
23618;DHT22;18207;32.078;34.818;2022-10-16T15:14:57;32.30;39.00
23618;DHT22;18207;32.078;34.818;2022-10-16T15:17:29;32.30;39.10
23618;DHT22;18207;32.078;34.818;2022-10-16T15:19:59;32.30;39.20
23618;DHT22;18207;32.078;34.818;2022-10-16T15:22:31;32.30;39.20
23618;DHT22;18207;32.078;34.818;2022-10-16T15:25:04;32.20;39.20
23618;DHT22;18207;32.078;34.818;2022-10-16T15:27:53;32.20;39.20
23618;DHT22;18207;32.078;34.818;2022-10-16T15:30:24;32.20;39.40
23618;DHT22;18207;32.078;34.818;2022-10-16T15:32:54;32.20;39.30
23618;DHT22;18207;32.078;34.818;2022-10-16T15:35:24;32.20;39.40
23618;DHT22;18207;32.078;34.818;2022-10-16T15:37:58;32.20;39.50
23618;DHT22;18207;32.078;34.818;2022-10-16T15:40:28;32.10;39.50
23618;DHT22;18207;32.078;34.818;2022-10-16T15:42:59;32.20;39.60
23618;DHT22;18207;32.078;34.818;2022-10-16T15:45:29;32.10;39.60
23618;DHT22;18207;32.078;34.818;2022-10-16T15:48:00;32.10;39.70
23618;DHT22;18207;32.078;34.818;2022-10-16T15:50:34;32.10;39.80
23618;DHT22;18207;32.078;34.818;2022-10-16T15:53:12;32.10;39.80
23618;DHT22;18207;32.078;34.818;2022-10-16T15:55:44;32.00;39.80
23618;DHT22;18207;32.078;34.818;2022-10-16T15:58:14;32.00;39.90
23618;DHT22;18207;32.078;34.818;2022-10-16T16:00:44;32.00;39.90
23618;DHT22;18207;32.078;34.818;2022-10-16T16:03:14;31.90;39.90
23618;DHT22;18207;32.078;34.818;2022-10-16T16:05:48;32.00;40.00
23618;DHT22;18207;32.078;34.818;2022-10-16T16:08:36;31.90;40.00
23618;DHT22;18207;32.078;34.818;2022-10-16T16:11:09;31.90;40.20
23618;DHT22;18207;32.078;34.818;2022-10-16T16:13:40;31.90;40.10
23618;DHT22;18207;32.078;34.818;2022-10-16T16:16:14;31.90;40.20
23618;DHT22;18207;32.078;34.818;2022-10-16T16:18:47;31.90;40.20
23618;DHT22;18207;32.078;34.818;2022-10-16T16:21:21;31.80;40.20